sensor_id;sensor_type;location;lat;lon;timestamp;pressure;altitude;pressure_sealevel;temperature;humidity
58471;BME280;44258;51.288;12.068;2023-04-08T00:01:42;100949.16;;;6.43;71.61
58471;BME280;44258;51.288;12.068;2023-04-08T00:04:11;100951.97;;;6.39;71.10
58471;BME280;44258;51.288;12.068;2023-04-08T00:06:47;100943.00;;;6.10;72.47
58471;BME280;44258;51.288;12.068;2023-04-08T00:09:14;100945.31;;;6.22;71.81
58471;BME280;44258;51.288;12.068;2023-04-08T00:11:40;100949.47;;;6.01;73.48
58471;BME280;44258;51.288;12.068;2023-04-08T00:14:07;100945.44;;;5.85;73.67
58471;BME280;44258;51.288;12.068;2023-04-08T00:16:35;100940.44;;;6.07;73.40
58471;BME280;44258;51.288;12.068;2023-04-08T00:19:06;100936.16;;;6.00;73.61
58471;BME280;44258;51.288;12.068;2023-04-08T00:21:34;100944.31;;;6.26;72.77
58471;BME280;44258;51.288;12.068;2023-04-08T00:24:00;100939.19;;;6.19;72.90
58471;BME280;44258;51.288;12.068;2023-04-08T00:26:27;100945.91;;;6.01;73.81
58471;BME280;44258;51.288;12.068;2023-04-08T00:28:53;100943.94;;;6.09;72.78
58471;BME280;44258;51.288;12.068;2023-04-08T00:31:20;100947.31;;;5.81;73.49
58471;BME280;44258;51.288;12.068;2023-04-08T00:33:47;100954.00;;;5.63;74.32
58471;BME280;44258;51.288;12.068;2023-04-08T00:36:14;100954.66;;;5.71;73.92
58471;BME280;44258;51.288;12.068;2023-04-08T00:38:41;100954.97;;;5.95;73.11
58471;BME280;44258;51.288;12.068;2023-04-08T00:41:08;100951.38;;;5.96;73.56
58471;BME280;44258;51.288;12.068;2023-04-08T00:43:35;100947.75;;;5.64;75.13
58471;BME280;44258;51.288;12.068;2023-04-08T00:46:02;100944.19;;;5.64;75.00
58471;BME280;44258;51.288;12.068;2023-04-08T00:48:29;100950.19;;;5.72;74.76
58471;BME280;44258;51.288;12.068;2023-04-08T00:51:02;100942.97;;;5.77;74.09
58471;BME280;44258;51.288;12.068;2023-04-08T00:53:30;100949.28;;;5.73;73.94
58471;BME280;44258;51.288;12.068;2023-04-08T00:56:04;100940.25;;;5.79;73.50
58471;BME280;44258;51.288;12.068;2023-04-08T00:58:31;100949.44;;;5.68;74.70
58471;BME280;44258;51.288;12.068;2023-04-08T01:01:06;100945.16;;;5.96;73.64
58471;BME280;44258;51.288;12.068;2023-04-08T01:03:39;100942.50;;;5.96;73.33
58471;BME280;44258;51.288;12.068;2023-04-08T01:06:22;100948.69;;;5.62;74.91
58471;BME280;44258;51.288;12.068;2023-04-08T01:08:54;100942.53;;;5.94;73.71
58471;BME280;44258;51.288;12.068;2023-04-08T01:11:23;100942.13;;;6.09;72.87
58471;BME280;44258;51.288;12.068;2023-04-08T01:13:54;100943.63;;;6.20;72.13
58471;BME280;44258;51.288;12.068;2023-04-08T01:16:23;100943.88;;;6.10;72.90
58471;BME280;44258;51.288;12.068;2023-04-08T01:18:52;100955.09;;;6.23;72.23
58471;BME280;44258;51.288;12.068;2023-04-08T01:21:21;100953.47;;;5.83;73.97
58471;BME280;44258;51.288;12.068;2023-04-08T01:23:55;100956.88;;;5.88;73.73
58471;BME280;44258;51.288;12.068;2023-04-08T01:26:32;100957.97;;;5.81;74.36
58471;BME280;44258;51.288;12.068;2023-04-08T01:29:03;100946.03;;;5.96;73.31
58471;BME280;44258;51.288;12.068;2023-04-08T01:31:30;100955.50;;;5.73;74.92
58471;BME280;44258;51.288;12.068;2023-04-08T01:34:00;100960.88;;;5.72;74.00
58471;BME280;44258;51.288;12.068;2023-04-08T01:36:30;100957.88;;;5.14;77.09
58471;BME280;44258;51.288;12.068;2023-04-08T01:38:59;100953.00;;;5.31;76.93
58471;BME280;44258;51.288;12.068;2023-04-08T01:41:28;100945.66;;;5.04;77.78
58471;BME280;44258;51.288;12.068;2023-04-08T01:43:57;100947.94;;;5.57;76.39
58471;BME280;44258;51.288;12.068;2023-04-08T01:46:25;100948.97;;;5.51;76.09
58471;BME280;44258;51.288;12.068;2023-04-08T01:48:57;100948.97;;;5.51;75.71
58471;BME280;44258;51.288;12.068;2023-04-08T01:51:25;100946.81;;;5.65;75.38
58471;BME280;44258;51.288;12.068;2023-04-08T01:53:52;100941.19;;;5.06;78.41
58471;BME280;44258;51.288;12.068;2023-04-08T01:56:21;100954.25;;;4.78;79.04
58471;BME280;44258;51.288;12.068;2023-04-08T01:58:58;100955.94;;;4.82;80.05
58471;BME280;44258;51.288;12.068;2023-04-08T02:01:27;100953.91;;;5.30;78.04
58471;BME280;44258;51.288;12.068;2023-04-08T02:03:56;100949.56;;;5.28;77.55
58471;BME280;44258;51.288;12.068;2023-04-08T02:06:25;100941.66;;;5.59;76.56
58471;BME280;44258;51.288;12.068;2023-04-08T02:09:00;100957.19;;;5.78;74.81
58471;BME280;44258;51.288;12.068;2023-04-08T02:11:27;100961.63;;;5.77;75.08
58471;BME280;44258;51.288;12.068;2023-04-08T02:13:55;100952.53;;;5.84;74.43
58471;BME280;44258;51.288;12.068;2023-04-08T02:16:28;100960.34;;;5.58;75.62
58471;BME280;44258;51.288;12.068;2023-04-08T02:18:58;100956.09;;;5.50;75.63
58471;BME280;44258;51.288;12.068;2023-04-08T02:21:31;100961.09;;;5.64;74.67
58471;BME280;44258;51.288;12.068;2023-04-08T02:24:04;100961.34;;;5.53;75.57
58471;BME280;44258;51.288;12.068;2023-04-08T02:26:33;100957.97;;;5.81;74.77
58471;BME280;44258;51.288;12.068;2023-04-08T02:29:03;100960.66;;;5.81;74.99
58471;BME280;44258;51.288;12.068;2023-04-08T02:31:32;100955.91;;;5.92;74.41
58471;BME280;44258;51.288;12.068;2023-04-08T02:34:00;100948.66;;;5.98;73.74
58471;BME280;44258;51.288;12.068;2023-04-08T02:36:27;100944.47;;;5.87;74.02
58471;BME280;44258;51.288;12.068;2023-04-08T02:38:54;100948.44;;;6.07;73.77
58471;BME280;44258;51.288;12.068;2023-04-08T02:41:21;100946.69;;;6.04;73.72
58471;BME280;44258;51.288;12.068;2023-04-08T02:43:47;100947.63;;;5.69;75.02
58471;BME280;44258;51.288;12.068;2023-04-08T02:46:21;100958.97;;;5.41;76.06
58471;BME280;44258;51.288;12.068;2023-04-08T02:48:50;100952.59;;;5.48;75.40
58471;BME280;44258;51.288;12.068;2023-04-08T02:51:21;100964.91;;;5.54;75.09
58471;BME280;44258;51.288;12.068;2023-04-08T02:53:48;100957.53;;;5.64;74.62
58471;BME280;44258;51.288;12.068;2023-04-08T02:56:15;100957.25;;;5.40;75.33
58471;BME280;44258;51.288;12.068;2023-04-08T02:58:41;100960.84;;;5.00;77.68
58471;BME280;44258;51.288;12.068;2023-04-08T03:01:08;100965.06;;;5.48;76.21
58471;BME280;44258;51.288;12.068;2023-04-08T03:03:35;100959.00;;;5.76;75.31
58471;BME280;44258;51.288;12.068;2023-04-08T03:06:03;100955.69;;;5.66;75.55
58471;BME280;44258;51.288;12.068;2023-04-08T03:08:30;100954.94;;;5.61;75.55
58471;BME280;44258;51.288;12.068;2023-04-08T03:10:58;100957.47;;;5.31;76.53
58471;BME280;44258;51.288;12.068;2023-04-08T03:13:25;100955.38;;;5.44;76.45
58471;BME280;44258;51.288;12.068;2023-04-08T03:15:51;100953.41;;;5.52;75.71
58471;BME280;44258;51.288;12.068;2023-04-08T03:18:20;100953.06;;;5.30;76.92
58471;BME280;44258;51.288;12.068;2023-04-08T03:20:52;100955.22;;;5.14;77.42
58471;BME280;44258;51.288;12.068;2023-04-08T03:23:23;100971.88;;;5.24;76.63
58471;BME280;44258;51.288;12.068;2023-04-08T03:25:49;100958.53;;;5.24;77.10
58471;BME280;44258;51.288;12.068;2023-04-08T03:28:16;100965.84;;;5.16;77.39
58471;BME280;44258;51.288;12.068;2023-04-08T03:30:46;100954.13;;;5.21;77.31
58471;BME280;44258;51.288;12.068;2023-04-08T03:33:18;100965.50;;;4.90;78.23
58471;BME280;44258;51.288;12.068;2023-04-08T03:35:48;100968.16;;;4.90;78.48
58471;BME280;44258;51.288;12.068;2023-04-08T03:38:15;100969.28;;;4.80;78.82
58471;BME280;44258;51.288;12.068;2023-04-08T03:40:43;100973.00;;;4.75;79.90
58471;BME280;44258;51.288;12.068;2023-04-08T03:43:10;100972.31;;;4.65;80.58
58471;BME280;44258;51.288;12.068;2023-04-08T03:45:38;100975.59;;;5.15;77.84
58471;BME280;44258;51.288;12.068;2023-04-08T03:48:04;100980.75;;;4.42;81.32
58471;BME280;44258;51.288;12.068;2023-04-08T03:50:32;100981.06;;;4.70;81.01
58471;BME280;44258;51.288;12.068;2023-04-08T03:53:00;100979.41;;;5.05;78.79
58471;BME280;44258;51.288;12.068;2023-04-08T03:55:26;100985.06;;;4.91;79.45
58471;BME280;44258;51.288;12.068;2023-04-08T03:57:54;100988.06;;;5.14;78.38
58471;BME280;44258;51.288;12.068;2023-04-08T04:02:56;100989.41;;;4.95;78.83
58471;BME280;44258;51.288;12.068;2023-04-08T04:05:24;100999.72;;;4.70;80.82
58471;BME280;44258;51.288;12.068;2023-04-08T04:07:51;101002.16;;;4.37;82.37
58471;BME280;44258;51.288;12.068;2023-04-08T04:10:17;101010.75;;;4.05;83.97
58471;BME280;44258;51.288;12.068;2023-04-08T04:12:44;101006.84;;;4.24;83.78
58471;BME280;44258;51.288;12.068;2023-04-08T04:15:13;101014.00;;;4.66;81.78
58471;BME280;44258;51.288;12.068;2023-04-08T04:17:40;101011.22;;;4.27;83.76
58471;BME280;44258;51.288;12.068;2023-04-08T04:20:07;101014.59;;;4.80;81.29
58471;BME280;44258;51.288;12.068;2023-04-08T04:22:36;101015.13;;;4.54;82.28
58471;BME280;44258;51.288;12.068;2023-04-08T04:25:04;101028.50;;;4.04;83.87
58471;BME280;44258;51.288;12.068;2023-04-08T04:27:30;101012.34;;;3.64;86.93
58471;BME280;44258;51.288;12.068;2023-04-08T04:29:57;101018.72;;;4.06;85.42
58471;BME280;44258;51.288;12.068;2023-04-08T04:32:25;101007.91;;;4.61;82.07
58471;BME280;44258;51.288;12.068;2023-04-08T04:35:07;101009.22;;;4.83;81.15
58471;BME280;44258;51.288;12.068;2023-04-08T04:37:33;101010.47;;;5.07;79.94
58471;BME280;44258;51.288;12.068;2023-04-08T04:40:00;101025.16;;;4.41;82.42
58471;BME280;44258;51.288;12.068;2023-04-08T04:42:27;101025.53;;;4.66;81.70
58471;BME280;44258;51.288;12.068;2023-04-08T04:44:53;101023.47;;;4.81;80.89
58471;BME280;44258;51.288;12.068;2023-04-08T04:47:20;101026.63;;;4.98;80.31
58471;BME280;44258;51.288;12.068;2023-04-08T04:49:51;101034.84;;;4.89;80.25
58471;BME280;44258;51.288;12.068;2023-04-08T04:52:18;101031.97;;;4.98;79.89
58471;BME280;44258;51.288;12.068;2023-04-08T04:54:44;101037.81;;;4.73;81.50
58471;BME280;44258;51.288;12.068;2023-04-08T04:57:11;101039.13;;;4.96;80.92
58471;BME280;44258;51.288;12.068;2023-04-08T04:59:37;101045.94;;;4.22;83.62
58471;BME280;44258;51.288;12.068;2023-04-08T05:02:05;101044.78;;;4.81;82.12
58471;BME280;44258;51.288;12.068;2023-04-08T05:04:32;101037.72;;;5.20;80.39
58471;BME280;44258;51.288;12.068;2023-04-08T05:07:00;101031.66;;;5.51;78.76
58471;BME280;44258;51.288;12.068;2023-04-08T05:09:28;101043.50;;;5.39;78.93
58471;BME280;44258;51.288;12.068;2023-04-08T05:11:55;101038.56;;;5.21;79.23
58471;BME280;44258;51.288;12.068;2023-04-08T05:14:21;101052.47;;;4.51;82.22
58471;BME280;44258;51.288;12.068;2023-04-08T05:16:48;101053.34;;;4.53;82.65
58471;BME280;44258;51.288;12.068;2023-04-08T05:19:15;101061.09;;;4.17;84.09
58471;BME280;44258;51.288;12.068;2023-04-08T05:21:41;101054.09;;;4.58;83.61
58471;BME280;44258;51.288;12.068;2023-04-08T05:24:10;101058.34;;;4.68;82.75
58471;BME280;44258;51.288;12.068;2023-04-08T05:26:36;101054.31;;;5.31;79.68
58471;BME280;44258;51.288;12.068;2023-04-08T05:29:03;101056.22;;;5.28;79.05
58471;BME280;44258;51.288;12.068;2023-04-08T05:31:29;101049.81;;;5.35;78.56
58471;BME280;44258;51.288;12.068;2023-04-08T05:33:57;101048.53;;;5.51;77.90
58471;BME280;44258;51.288;12.068;2023-04-08T05:36:24;101046.25;;;5.36;78.81
58471;BME280;44258;51.288;12.068;2023-04-08T05:38:51;101052.91;;;4.75;81.63
58471;BME280;44258;51.288;12.068;2023-04-08T05:41:19;101062.41;;;4.88;81.07
58471;BME280;44258;51.288;12.068;2023-04-08T05:43:45;101062.66;;;5.18;80.13
58471;BME280;44258;51.288;12.068;2023-04-08T05:46:12;101068.03;;;5.14;79.92
58471;BME280;44258;51.288;12.068;2023-04-08T05:48:38;101065.63;;;5.04;79.95
58471;BME280;44258;51.288;12.068;2023-04-08T05:51:05;101066.47;;;5.06;80.33
58471;BME280;44258;51.288;12.068;2023-04-08T05:53:31;101076.63;;;5.29;79.15
58471;BME280;44258;51.288;12.068;2023-04-08T05:55:58;101072.75;;;5.03;80.51
58471;BME280;44258;51.288;12.068;2023-04-08T05:58:29;101077.41;;;4.48;82.68
58471;BME280;44258;51.288;12.068;2023-04-08T06:00:55;101078.66;;;4.74;82.37
58471;BME280;44258;51.288;12.068;2023-04-08T06:03:22;101070.47;;;4.85;81.86
58471;BME280;44258;51.288;12.068;2023-04-08T06:05:49;101074.38;;;5.09;80.70
58471;BME280;44258;51.288;12.068;2023-04-08T06:08:15;101064.78;;;5.42;79.05
58471;BME280;44258;51.288;12.068;2023-04-08T06:10:47;101075.44;;;5.42;78.54
58471;BME280;44258;51.288;12.068;2023-04-08T06:13:14;101080.38;;;5.59;77.92
58471;BME280;44258;51.288;12.068;2023-04-08T06:15:42;101091.44;;;5.42;78.35
58471;BME280;44258;51.288;12.068;2023-04-08T06:18:09;101084.13;;;5.52;77.68
58471;BME280;44258;51.288;12.068;2023-04-08T06:20:35;101090.34;;;5.51;77.85
58471;BME280;44258;51.288;12.068;2023-04-08T06:23:02;101093.72;;;5.19;79.81
58471;BME280;44258;51.288;12.068;2023-04-08T06:25:30;101095.66;;;5.12;80.32
58471;BME280;44258;51.288;12.068;2023-04-08T06:27:57;101095.75;;;5.07;80.58
58471;BME280;44258;51.288;12.068;2023-04-08T06:30:24;101090.09;;;5.21;80.39
58471;BME280;44258;51.288;12.068;2023-04-08T06:32:53;101099.13;;;4.72;82.01
58471;BME280;44258;51.288;12.068;2023-04-08T06:35:20;101097.53;;;5.07;81.42
58471;BME280;44258;51.288;12.068;2023-04-08T06:37:47;101105.31;;;5.18;80.11
58471;BME280;44258;51.288;12.068;2023-04-08T06:40:13;101084.28;;;5.44;79.74
58471;BME280;44258;51.288;12.068;2023-04-08T06:42:40;101096.91;;;5.75;78.34
58471;BME280;44258;51.288;12.068;2023-04-08T06:45:10;101111.81;;;5.03;80.91
58471;BME280;44258;51.288;12.068;2023-04-08T06:47:36;101108.75;;;5.23;81.21
58471;BME280;44258;51.288;12.068;2023-04-08T06:50:05;101118.47;;;4.82;82.31
58471;BME280;44258;51.288;12.068;2023-04-08T06:52:36;101119.78;;;5.06;81.43
58471;BME280;44258;51.288;12.068;2023-04-08T06:55:03;101122.28;;;4.68;83.66
58471;BME280;44258;51.288;12.068;2023-04-08T06:57:30;101127.19;;;4.91;83.29
58471;BME280;44258;51.288;12.068;2023-04-08T07:00:00;101125.09;;;5.07;82.28
58471;BME280;44258;51.288;12.068;2023-04-08T07:02:29;101147.16;;;4.69;83.59
58471;BME280;44258;51.288;12.068;2023-04-08T07:04:55;101138.72;;;4.90;82.91
58471;BME280;44258;51.288;12.068;2023-04-08T07:07:23;101140.91;;;5.15;82.31
58471;BME280;44258;51.288;12.068;2023-04-08T07:09:50;101146.72;;;4.90;82.47
58471;BME280;44258;51.288;12.068;2023-04-08T07:12:17;101141.19;;;5.43;80.83
58471;BME280;44258;51.288;12.068;2023-04-08T07:14:44;101148.34;;;4.99;82.78
58471;BME280;44258;51.288;12.068;2023-04-08T07:17:10;101145.47;;;5.08;82.05
58471;BME280;44258;51.288;12.068;2023-04-08T07:19:37;101144.94;;;5.34;81.68
58471;BME280;44258;51.288;12.068;2023-04-08T07:22:05;101142.97;;;5.44;80.77
58471;BME280;44258;51.288;12.068;2023-04-08T07:24:33;101145.94;;;5.29;81.20
58471;BME280;44258;51.288;12.068;2023-04-08T07:27:00;101146.53;;;5.43;80.70
58471;BME280;44258;51.288;12.068;2023-04-08T07:29:26;101152.06;;;4.90;82.12
58471;BME280;44258;51.288;12.068;2023-04-08T07:31:53;101146.59;;;5.40;80.60
58471;BME280;44258;51.288;12.068;2023-04-08T07:34:19;101150.13;;;5.42;80.72
58471;BME280;44258;51.288;12.068;2023-04-08T07:36:46;101149.38;;;4.92;83.22
58471;BME280;44258;51.288;12.068;2023-04-08T07:39:12;101150.59;;;5.19;82.99
58471;BME280;44258;51.288;12.068;2023-04-08T07:41:41;101139.06;;;5.19;82.13
58471;BME280;44258;51.288;12.068;2023-04-08T07:44:07;101142.56;;;5.63;80.01
58471;BME280;44258;51.288;12.068;2023-04-08T07:46:37;101147.91;;;6.02;79.32
58471;BME280;44258;51.288;12.068;2023-04-08T07:49:04;101160.44;;;5.58;80.96
58471;BME280;44258;51.288;12.068;2023-04-08T07:51:31;101159.84;;;5.45;81.69
58471;BME280;44258;51.288;12.068;2023-04-08T07:53:58;101159.97;;;4.95;83.46
58471;BME280;44258;51.288;12.068;2023-04-08T07:56:25;101164.22;;;5.05;83.71
58471;BME280;44258;51.288;12.068;2023-04-08T07:58:53;101164.50;;;4.90;84.73
58471;BME280;44258;51.288;12.068;2023-04-08T08:01:21;101175.03;;;5.41;83.47
58471;BME280;44258;51.288;12.068;2023-04-08T08:03:49;101163.41;;;5.00;84.67
58471;BME280;44258;51.288;12.068;2023-04-08T08:06:16;101157.25;;;4.97;85.13
58471;BME280;44258;51.288;12.068;2023-04-08T08:08:43;101161.75;;;5.40;83.19
58471;BME280;44258;51.288;12.068;2023-04-08T08:11:10;101170.84;;;5.70;81.83
58471;BME280;44258;51.288;12.068;2023-04-08T08:13:41;101169.25;;;5.61;81.81
58471;BME280;44258;51.288;12.068;2023-04-08T08:16:09;101176.41;;;5.59;82.64
58471;BME280;44258;51.288;12.068;2023-04-08T08:18:36;101175.03;;;5.82;81.64
58471;BME280;44258;51.288;12.068;2023-04-08T08:21:04;101178.34;;;6.30;79.00
58471;BME280;44258;51.288;12.068;2023-04-08T08:23:31;101183.63;;;6.33;78.28
58471;BME280;44258;51.288;12.068;2023-04-08T08:26:02;101183.75;;;5.88;81.25
58471;BME280;44258;51.288;12.068;2023-04-08T08:28:30;101192.44;;;6.00;81.03
58471;BME280;44258;51.288;12.068;2023-04-08T08:30:57;101202.16;;;5.62;82.79
58471;BME280;44258;51.288;12.068;2023-04-08T08:33:25;101195.19;;;5.56;82.31
58471;BME280;44258;51.288;12.068;2023-04-08T08:35:55;101205.31;;;5.81;81.40
58471;BME280;44258;51.288;12.068;2023-04-08T08:38:23;101213.69;;;6.04;80.71
58471;BME280;44258;51.288;12.068;2023-04-08T08:40:53;101206.59;;;5.63;81.70
58471;BME280;44258;51.288;12.068;2023-04-08T08:43:23;101215.03;;;5.41;82.25
58471;BME280;44258;51.288;12.068;2023-04-08T08:45:50;101216.78;;;5.44;82.68
58471;BME280;44258;51.288;12.068;2023-04-08T08:48:17;101211.06;;;5.61;83.25
58471;BME280;44258;51.288;12.068;2023-04-08T08:50:45;101213.59;;;5.25;82.90
58471;BME280;44258;51.288;12.068;2023-04-08T08:53:11;101212.13;;;5.96;81.93
58471;BME280;44258;51.288;12.068;2023-04-08T08:55:38;101220.16;;;5.94;82.64
58471;BME280;44258;51.288;12.068;2023-04-08T08:58:05;101212.31;;;6.25;80.15
58471;BME280;44258;51.288;12.068;2023-04-08T09:00:40;101224.16;;;5.73;81.44
58471;BME280;44258;51.288;12.068;2023-04-08T09:03:16;101223.34;;;6.10;80.60
58471;BME280;44258;51.288;12.068;2023-04-08T09:05:49;101221.81;;;6.37;79.95
58471;BME280;44258;51.288;12.068;2023-04-08T09:08:23;101229.88;;;5.97;80.82
58471;BME280;44258;51.288;12.068;2023-04-08T09:10:50;101232.41;;;6.03;81.62
58471;BME280;44258;51.288;12.068;2023-04-08T09:13:17;101233.84;;;5.77;82.75
58471;BME280;44258;51.288;12.068;2023-04-08T09:16:00;101234.38;;;6.33;80.49
58471;BME280;44258;51.288;12.068;2023-04-08T09:18:28;101235.66;;;6.53;79.88
58471;BME280;44258;51.288;12.068;2023-04-08T09:20:58;101229.28;;;6.60;78.58
58471;BME280;44258;51.288;12.068;2023-04-08T09:23:36;101235.53;;;6.58;79.50
58471;BME280;44258;51.288;12.068;2023-04-08T09:26:07;101240.69;;;6.65;78.92
58471;BME280;44258;51.288;12.068;2023-04-08T09:28:34;101235.59;;;6.56;79.14
58471;BME280;44258;51.288;12.068;2023-04-08T09:31:17;101243.84;;;6.83;78.32
58471;BME280;44258;51.288;12.068;2023-04-08T09:33:45;101235.25;;;7.37;76.94
58471;BME280;44258;51.288;12.068;2023-04-08T09:36:14;101244.59;;;7.53;75.69
58471;BME280;44258;51.288;12.068;2023-04-08T09:38:42;101246.69;;;7.42;75.46
58471;BME280;44258;51.288;12.068;2023-04-08T09:41:12;101243.50;;;7.28;75.59
58471;BME280;44258;51.288;12.068;2023-04-08T09:43:41;101246.69;;;7.42;75.29
58471;BME280;44258;51.288;12.068;2023-04-08T09:46:15;101246.81;;;7.38;75.44
58471;BME280;44258;51.288;12.068;2023-04-08T09:48:48;101243.13;;;7.42;74.64
58471;BME280;44258;51.288;12.068;2023-04-08T09:51:23;101244.41;;;7.27;76.58
58471;BME280;44258;51.288;12.068;2023-04-08T09:53:55;101238.28;;;7.86;75.12
58471;BME280;44258;51.288;12.068;2023-04-08T09:56:26;101250.09;;;7.79;74.59
58471;BME280;44258;51.288;12.068;2023-04-08T09:58:58;101250.34;;;8.01;73.78
58471;BME280;44258;51.288;12.068;2023-04-08T10:01:29;101248.31;;;8.37;73.16
58471;BME280;44258;51.288;12.068;2023-04-08T10:03:59;101247.56;;;8.32;72.79
58471;BME280;44258;51.288;12.068;2023-04-08T10:06:28;101254.59;;;8.36;72.13
58471;BME280;44258;51.288;12.068;2023-04-08T10:08:57;101254.53;;;8.38;72.18
58471;BME280;44258;51.288;12.068;2023-04-08T10:11:25;101257.19;;;8.39;72.19
58471;BME280;44258;51.288;12.068;2023-04-08T10:13:52;101252.78;;;8.37;71.84
58471;BME280;44258;51.288;12.068;2023-04-08T10:16:20;101255.84;;;8.24;72.55
58471;BME280;44258;51.288;12.068;2023-04-08T10:18:48;101249.66;;;8.22;72.26
58471;BME280;44258;51.288;12.068;2023-04-08T10:21:35;101252.31;;;8.24;72.21
58471;BME280;44258;51.288;12.068;2023-04-08T10:24:06;101258.44;;;8.27;71.21
58471;BME280;44258;51.288;12.068;2023-04-08T10:26:38;101252.00;;;8.05;72.15
58471;BME280;44258;51.288;12.068;2023-04-08T10:29:30;101257.41;;;8.03;72.19
58471;BME280;44258;51.288;12.068;2023-04-08T10:31:57;101259.75;;;8.14;71.71
58471;BME280;44258;51.288;12.068;2023-04-08T10:34:25;101259.41;;;7.97;72.55
58471;BME280;44258;51.288;12.068;2023-04-08T10:37:01;101261.41;;;8.18;71.42
58471;BME280;44258;51.288;12.068;2023-04-08T10:39:29;101258.63;;;7.93;71.64
58471;BME280;44258;51.288;12.068;2023-04-08T10:41:56;101266.16;;;7.47;73.63
58471;BME280;44258;51.288;12.068;2023-04-08T10:44:29;101273.50;;;7.72;72.78
58471;BME280;44258;51.288;12.068;2023-04-08T10:46:55;101261.31;;;7.91;71.63
58471;BME280;44258;51.288;12.068;2023-04-08T10:49:31;101268.97;;;7.74;72.51
58471;BME280;44258;51.288;12.068;2023-04-08T10:51:59;101264.56;;;7.71;73.04
58471;BME280;44258;51.288;12.068;2023-04-08T10:54:27;101259.41;;;7.97;72.27
58471;BME280;44258;51.288;12.068;2023-04-08T10:56:54;101267.28;;;8.31;71.09
58471;BME280;44258;51.288;12.068;2023-04-08T10:59:27;101260.13;;;8.02;72.15
58471;BME280;44258;51.288;12.068;2023-04-08T11:01:53;101263.59;;;8.33;71.74
58471;BME280;44258;51.288;12.068;2023-04-08T11:04:20;101268.19;;;8.58;70.93
58471;BME280;44258;51.288;12.068;2023-04-08T11:06:48;101255.97;;;8.76;70.14
58471;BME280;44258;51.288;12.068;2023-04-08T11:09:16;101255.56;;;8.33;70.70
58471;BME280;44258;51.288;12.068;2023-04-08T11:11:45;101269.75;;;8.37;70.65
58471;BME280;44258;51.288;12.068;2023-04-08T11:14:12;101261.81;;;8.34;70.61
58471;BME280;44258;51.288;12.068;2023-04-08T11:16:41;101259.31;;;8.28;70.29
58471;BME280;44258;51.288;12.068;2023-04-08T11:19:08;101265.22;;;8.11;70.95
58471;BME280;44258;51.288;12.068;2023-04-08T11:21:35;101264.69;;;7.67;72.91
58471;BME280;44258;51.288;12.068;2023-04-08T11:24:08;101262.91;;;7.99;71.31
58471;BME280;44258;51.288;12.068;2023-04-08T11:26:36;101269.97;;;7.70;71.98
58471;BME280;44258;51.288;12.068;2023-04-08T11:29:05;101263.44;;;8.10;70.59
58471;BME280;44258;51.288;12.068;2023-04-08T11:31:31;101261.13;;;8.27;70.32
58471;BME280;44258;51.288;12.068;2023-04-08T11:34:03;101265.28;;;8.08;70.64
58471;BME280;44258;51.288;12.068;2023-04-08T11:36:29;101265.09;;;8.14;70.55
58471;BME280;44258;51.288;12.068;2023-04-08T11:38:56;101255.38;;;8.11;70.62
58471;BME280;44258;51.288;12.068;2023-04-08T11:41:23;101262.34;;;8.17;70.16
58471;BME280;44258;51.288;12.068;2023-04-08T11:43:55;101267.13;;;8.06;71.03
58471;BME280;44258;51.288;12.068;2023-04-08T11:46:23;101274.41;;;8.02;71.80
58471;BME280;44258;51.288;12.068;2023-04-08T11:48:57;101269.50;;;7.56;72.51
58471;BME280;44258;51.288;12.068;2023-04-08T11:51:23;101262.66;;;7.45;71.92
58471;BME280;44258;51.288;12.068;2023-04-08T11:53:50;101264.78;;;8.25;69.44
58471;BME280;44258;51.288;12.068;2023-04-08T11:56:19;101267.09;;;8.07;69.41
58471;BME280;44258;51.288;12.068;2023-04-08T11:58:47;101262.53;;;8.67;67.02
58471;BME280;44258;51.288;12.068;2023-04-08T12:01:13;101255.59;;;8.60;67.56
58471;BME280;44258;51.288;12.068;2023-04-08T12:03:54;101261.72;;;8.90;67.63
58471;BME280;44258;51.288;12.068;2023-04-08T12:06:21;101259.72;;;9.22;66.34
58471;BME280;44258;51.288;12.068;2023-04-08T12:08:47;101258.84;;;9.22;66.52
58471;BME280;44258;51.288;12.068;2023-04-08T12:11:15;101264.78;;;9.57;65.79
58471;BME280;44258;51.288;12.068;2023-04-08T12:13:42;101270.53;;;9.46;65.55
58471;BME280;44258;51.288;12.068;2023-04-08T12:16:08;101261.78;;;8.62;66.04
58471;BME280;44258;51.288;12.068;2023-04-08T12:18:35;101265.94;;;8.71;66.70
58471;BME280;44258;51.288;12.068;2023-04-08T12:21:04;101261.78;;;8.62;65.75
58471;BME280;44258;51.288;12.068;2023-04-08T12:23:31;101261.75;;;8.64;65.83
58471;BME280;44258;51.288;12.068;2023-04-08T12:26:00;101264.13;;;9.25;65.03
58471;BME280;44258;51.288;12.068;2023-04-08T12:28:28;101264.03;;;9.53;65.06
58471;BME280;44258;51.288;12.068;2023-04-08T12:30:55;101273.19;;;9.47;64.75
58471;BME280;44258;51.288;12.068;2023-04-08T12:33:22;101274.47;;;9.61;64.21
58471;BME280;44258;51.288;12.068;2023-04-08T12:35:50;101264.53;;;9.39;64.93
58471;BME280;44258;51.288;12.068;2023-04-08T12:38:19;101271.13;;;9.54;63.62
58471;BME280;44258;51.288;12.068;2023-04-08T12:40:46;101264.84;;;9.28;64.80
58471;BME280;44258;51.288;12.068;2023-04-08T12:43:15;101264.19;;;8.97;64.90
58471;BME280;44258;51.288;12.068;2023-04-08T12:45:42;101270.25;;;9.53;63.13
58471;BME280;44258;51.288;12.068;2023-04-08T12:48:09;101263.66;;;9.39;63.54
58471;BME280;44258;51.288;12.068;2023-04-08T12:50:37;101260.25;;;9.82;61.90
58471;BME280;44258;51.288;12.068;2023-04-08T12:53:03;101261.81;;;9.88;61.18
58471;BME280;44258;51.288;12.068;2023-04-08T12:55:31;101264.47;;;9.14;62.54
58471;BME280;44258;51.288;12.068;2023-04-08T12:57:58;101268.19;;;9.37;61.31
58471;BME280;44258;51.288;12.068;2023-04-08T13:00:24;101262.03;;;9.58;61.21